createdAt,value
2018-07-31T00:00:17.922Z,25.00
2018-07-31T00:02:46.253Z,24.90
2018-07-31T00:05:14.572Z,24.80
2018-07-31T00:07:42.898Z,24.90
2018-07-31T00:10:11.224Z,24.90
2018-07-31T00:12:39.537Z,24.80
2018-07-31T00:17:36.731Z,24.70
2018-07-31T00:20:05.177Z,24.70
2018-07-31T00:22:33.609Z,24.70
2018-07-31T00:25:01.961Z,24.70
2018-07-31T00:27:30.326Z,24.70
2018-07-31T00:29:58.648Z,24.60
2018-07-31T00:32:27.025Z,24.60
2018-07-31T00:34:55.366Z,24.60
2018-07-31T00:37:23.899Z,24.90
2018-07-31T00:39:52.171Z,25.00
2018-07-31T00:42:20.504Z,24.70
2018-07-31T00:44:48.817Z,24.50
2018-07-31T00:47:17.212Z,24.70
2018-07-31T00:49:45.548Z,24.50
2018-07-31T00:52:15.429Z,24.30
2018-07-31T00:54:43.812Z,24.20
2018-07-31T00:57:12.167Z,24.20
2018-07-31T00:59:40.502Z,24.10
2018-07-31T01:02:08.947Z,24.10
2018-07-31T01:04:37.293Z,24.00
2018-07-31T01:07:05.742Z,24.00
2018-07-31T01:09:34.092Z,24.00
2018-07-31T01:14:30.492Z,24.00
2018-07-31T01:16:58.828Z,24.00
2018-07-31T01:19:27.113Z,24.00
2018-07-31T01:21:55.387Z,24.00
2018-07-31T01:24:23.732Z,23.90
2018-07-31T01:26:52.033Z,23.90
2018-07-31T01:29:20.361Z,23.90
2018-07-31T01:31:48.716Z,23.90
2018-07-31T01:34:17.022Z,23.90
2018-07-31T01:36:45.336Z,23.80
2018-07-31T01:39:13.712Z,23.80
2018-07-31T01:41:42.229Z,24.20
2018-07-31T01:44:10.553Z,24.00
2018-07-31T01:46:38.902Z,23.90
2018-07-31T01:49:07.230Z,23.80
2018-07-31T01:51:35.552Z,23.80
2018-07-31T01:54:03.882Z,23.70
2018-07-31T01:56:32.188Z,23.70
2018-07-31T01:59:00.518Z,23.70
2018-07-31T02:01:28.859Z,23.70
2018-07-31T02:03:57.147Z,23.70
2018-07-31T02:06:28.538Z,23.70
2018-07-31T02:08:58.041Z,23.70
2018-07-31T02:11:26.429Z,23.70
2018-07-31T02:16:23.493Z,23.60
2018-07-31T02:18:52.027Z,23.50
2018-07-31T02:21:20.400Z,23.50
2018-07-31T02:23:48.711Z,23.50
2018-07-31T02:26:17.008Z,23.50
2018-07-31T02:28:45.389Z,23.50
2018-07-31T02:31:13.701Z,23.70
2018-07-31T02:33:42.017Z,23.50
2018-07-31T02:36:10.384Z,23.50
2018-07-31T02:38:38.797Z,23.40
2018-07-31T02:41:07.256Z,23.70
2018-07-31T02:43:35.559Z,23.50
2018-07-31T02:46:03.956Z,23.40
2018-07-31T02:48:32.245Z,23.30
2018-07-31T02:51:00.679Z,23.30
2018-07-31T02:53:29.017Z,23.30
2018-07-31T02:55:57.339Z,23.30
2018-07-31T02:58:25.631Z,23.20
2018-07-31T03:00:53.999Z,23.20
2018-07-31T03:03:22.294Z,23.10
2018-07-31T03:08:18.804Z,23.00
2018-07-31T03:10:47.016Z,23.10
2018-07-31T03:15:43.425Z,23.10
2018-07-31T03:18:11.718Z,23.10
2018-07-31T03:20:40.048Z,23.10
2018-07-31T03:23:08.348Z,23.10
2018-07-31T03:25:36.665Z,23.10
2018-07-31T03:28:05.042Z,23.10
2018-07-31T03:30:33.367Z,23.10
2018-07-31T03:33:01.795Z,23.10
2018-07-31T03:35:30.133Z,23.00
2018-07-31T03:37:58.465Z,23.00
2018-07-31T03:40:26.791Z,23.00
2018-07-31T03:42:55.117Z,23.00
2018-07-31T03:45:23.464Z,23.00
2018-07-31T03:47:51.762Z,23.00
2018-07-31T03:50:20.095Z,23.00
2018-07-31T03:52:48.389Z,23.00
2018-07-31T03:55:16.682Z,23.20
2018-07-31T03:57:45.001Z,23.10
2018-07-31T04:02:41.390Z,23.00
2018-07-31T04:05:09.694Z,23.00
2018-07-31T04:07:38.049Z,23.00
2018-07-31T04:10:06.407Z,22.90
2018-07-31T04:12:34.733Z,22.90
2018-07-31T04:15:03.126Z,22.90
2018-07-31T04:17:31.476Z,22.90
2018-07-31T04:19:59.797Z,22.90
2018-07-31T04:22:28.144Z,22.90
2018-07-31T04:24:56.441Z,22.90
2018-07-31T04:27:24.770Z,22.90
2018-07-31T04:29:53.090Z,23.30
2018-07-31T04:32:21.404Z,23.20
2018-07-31T04:34:49.771Z,23.10
2018-07-31T04:42:33.766Z,23.00
2018-07-31T04:45:02.133Z,23.00
2018-07-31T04:47:30.380Z,23.00
2018-07-31T04:49:58.785Z,23.00
2018-07-31T04:52:27.104Z,23.00
2018-07-31T04:54:55.513Z,23.40
2018-07-31T04:57:23.871Z,23.30
2018-07-31T04:59:52.194Z,23.30
2018-07-31T05:04:48.688Z,23.30
2018-07-31T05:07:17.046Z,23.30
2018-07-31T05:09:45.331Z,23.30
2018-07-31T05:12:13.768Z,23.40
2018-07-31T05:14:42.084Z,23.30
2018-07-31T05:17:10.388Z,23.30
2018-07-31T05:19:38.720Z,23.30
2018-07-31T05:27:10.036Z,23.40
2018-07-31T05:32:06.650Z,23.40
2018-07-31T05:34:35.015Z,23.50
2018-07-31T05:37:03.319Z,23.50
2018-07-31T05:39:31.698Z,23.60
2018-07-31T05:42:00.012Z,23.90
2018-07-31T05:44:28.340Z,23.80
2018-07-31T05:46:56.669Z,23.70
2018-07-31T05:49:25.036Z,23.70
2018-07-31T05:51:53.486Z,23.70
2018-07-31T05:54:21.893Z,23.70
2018-07-31T05:56:50.286Z,23.70
2018-07-31T05:59:18.604Z,23.70
2018-07-31T06:01:46.916Z,24.10
2018-07-31T06:04:15.305Z,24.00
2018-07-31T06:06:43.632Z,24.20
2018-07-31T06:09:11.912Z,24.10
2018-07-31T06:11:40.320Z,24.00
2018-07-31T06:14:09.044Z,24.00
2018-07-31T06:16:37.783Z,24.00
2018-07-31T06:19:06.265Z,24.10
2018-07-31T06:24:02.770Z,24.30
2018-07-31T06:26:31.263Z,24.20
2018-07-31T06:28:59.584Z,24.20
2018-07-31T06:31:29.323Z,24.20
2018-07-31T06:33:56.284Z,24.30
2018-07-31T06:36:24.661Z,24.30
2018-07-31T06:38:53.131Z,24.30
2018-07-31T06:41:21.498Z,24.30
2018-07-31T06:43:49.853Z,24.30
2018-07-31T06:48:46.278Z,24.30
2018-07-31T06:51:14.636Z,24.40
2018-07-31T06:53:42.941Z,24.40
2018-07-31T06:56:11.312Z,24.40
2018-07-31T06:58:39.641Z,24.40
2018-07-31T07:01:08.085Z,24.50
2018-07-31T07:03:36.459Z,24.50
2018-07-31T07:06:04.853Z,24.60
2018-07-31T07:08:33.150Z,24.70
2018-07-31T07:11:01.501Z,25.20
2018-07-31T07:13:29.951Z,25.20
2018-07-31T07:15:58.344Z,25.20
2018-07-31T07:18:26.692Z,25.30
2018-07-31T07:20:55.025Z,25.30
2018-07-31T07:23:23.329Z,25.70
2018-07-31T07:25:51.757Z,25.70
2018-07-31T07:28:20.093Z,25.70
2018-07-31T07:30:48.450Z,25.60
2018-07-31T07:33:16.965Z,25.70
2018-07-31T07:35:45.421Z,25.80
2018-07-31T07:38:13.757Z,25.90
2018-07-31T07:40:42.166Z,25.90
2018-07-31T07:43:10.473Z,26.00
2018-07-31T07:45:39.678Z,26.40
2018-07-31T07:48:08.074Z,26.30
2018-07-31T07:50:36.739Z,26.60
2018-07-31T07:53:05.062Z,26.50
2018-07-31T07:55:33.372Z,26.40
2018-07-31T08:00:29.780Z,26.40
2018-07-31T08:02:58.170Z,26.50
2018-07-31T08:05:26.549Z,26.60
2018-07-31T08:07:54.904Z,26.90
2018-07-31T08:10:23.288Z,26.90
2018-07-31T08:12:51.614Z,26.80
2018-07-31T08:15:19.924Z,26.80
2018-07-31T08:17:48.298Z,26.80
2018-07-31T08:20:16.633Z,26.90
2018-07-31T08:22:45.002Z,26.90
2018-07-31T08:25:13.513Z,26.90
2018-07-31T08:27:41.869Z,26.90
2018-07-31T08:30:10.129Z,26.80
2018-07-31T08:32:38.492Z,26.90
2018-07-31T08:35:06.889Z,26.90
2018-07-31T08:37:35.279Z,26.90
2018-07-31T08:40:03.649Z,27.00
2018-07-31T08:42:31.995Z,27.00
2018-07-31T08:45:00.336Z,27.30
2018-07-31T08:47:28.710Z,27.50
2018-07-31T08:49:57.078Z,27.40
2018-07-31T08:52:25.416Z,27.30
2018-07-31T08:54:53.976Z,27.40
2018-07-31T08:57:22.331Z,27.40
2018-07-31T08:59:50.960Z,27.50
2018-07-31T09:02:19.321Z,27.50
2018-07-31T09:07:15.785Z,27.70
2018-07-31T09:09:44.123Z,27.80
2018-07-31T09:12:12.442Z,27.90
2018-07-31T09:14:40.817Z,27.90
2018-07-31T09:17:09.603Z,28.00
2018-07-31T09:19:37.941Z,28.10
2018-07-31T09:22:06.286Z,28.10
2018-07-31T09:24:34.798Z,28.00
2018-07-31T09:27:03.014Z,28.10
2018-07-31T09:29:31.379Z,28.10
2018-07-31T09:34:27.892Z,28.00
2018-07-31T09:36:56.311Z,28.10
2018-07-31T09:39:24.672Z,28.10
2018-07-31T09:41:53.059Z,28.40
2018-07-31T09:44:21.410Z,28.30
2018-07-31T09:46:49.781Z,28.30
2018-07-31T09:49:18.117Z,28.30
2018-07-31T09:51:46.516Z,28.50
2018-07-31T09:56:45.081Z,28.50
2018-07-31T10:01:41.583Z,28.80
2018-07-31T10:04:09.937Z,28.80
2018-07-31T10:06:38.273Z,28.70
2018-07-31T10:09:08.691Z,28.70
2018-07-31T10:11:37.034Z,28.80
2018-07-31T10:14:05.422Z,29.00
2018-07-31T10:16:33.845Z,29.00
2018-07-31T10:19:02.176Z,29.00
2018-07-31T10:21:30.587Z,29.00
2018-07-31T10:23:59.042Z,29.10
2018-07-31T10:26:27.378Z,29.30
2018-07-31T10:28:55.976Z,29.60
2018-07-31T10:31:24.389Z,29.40
2018-07-31T10:33:52.679Z,29.40
2018-07-31T10:36:21.065Z,29.50
2018-07-31T10:38:49.484Z,29.70
2018-07-31T10:41:17.824Z,29.80
2018-07-31T10:43:46.225Z,29.80
2018-07-31T10:46:14.593Z,29.70
2018-07-31T10:48:42.944Z,29.70
2018-07-31T10:51:11.311Z,29.80
2018-07-31T10:53:39.660Z,29.70
2018-07-31T10:56:08.042Z,29.60
2018-07-31T11:01:04.486Z,29.30
2018-07-31T11:06:00.938Z,29.00
2018-07-31T11:08:32.392Z,29.10
2018-07-31T11:11:00.778Z,29.20
2018-07-31T11:13:29.106Z,29.20
2018-07-31T11:15:57.483Z,29.40
2018-07-31T11:18:25.830Z,29.60
2018-07-31T11:20:54.257Z,29.80
2018-07-31T11:25:50.690Z,30.20
2018-07-31T11:28:22.043Z,30.40
2018-07-31T11:30:50.439Z,30.20
2018-07-31T11:33:18.816Z,30.10
2018-07-31T11:35:47.170Z,30.10
2018-07-31T11:38:15.573Z,30.20
2018-07-31T11:40:43.942Z,30.20
2018-07-31T11:43:12.296Z,30.40
2018-07-31T11:45:40.668Z,30.90
2018-07-31T11:48:09.023Z,30.90
2018-07-31T11:50:37.452Z,30.50
2018-07-31T11:53:05.835Z,30.30
2018-07-31T11:55:34.192Z,30.20
2018-07-31T11:58:02.496Z,30.20
2018-07-31T12:00:30.844Z,30.60
2018-07-31T12:02:59.182Z,30.70
2018-07-31T12:05:27.519Z,30.90
2018-07-31T12:07:55.953Z,31.00
2018-07-31T12:10:24.359Z,31.10
2018-07-31T12:12:52.710Z,31.40
2018-07-31T12:17:49.202Z,31.10
2018-07-31T12:20:17.546Z,31.20
2018-07-31T12:22:45.902Z,31.40
2018-07-31T12:25:14.260Z,31.60
2018-07-31T12:27:42.611Z,31.60
2018-07-31T12:30:11.427Z,31.40
2018-07-31T12:32:40.632Z,31.50
2018-07-31T12:35:09.323Z,31.10
2018-07-31T12:37:37.725Z,30.90
2018-07-31T12:40:06.798Z,31.00
2018-07-31T12:42:35.165Z,30.90
2018-07-31T12:45:03.548Z,31.30
2018-07-31T12:47:32.040Z,31.50
2018-07-31T12:50:00.422Z,32.10
2018-07-31T12:52:28.816Z,33.10
2018-07-31T12:57:25.205Z,32.70
2018-07-31T12:59:53.609Z,32.10
2018-07-31T13:02:21.883Z,31.60
2018-07-31T13:04:50.769Z,31.20
2018-07-31T13:07:19.171Z,30.90
2018-07-31T13:09:47.544Z,30.80
2018-07-31T13:12:18.395Z,30.60
2018-07-31T13:14:46.773Z,30.60
2018-07-31T13:17:15.121Z,30.10
2018-07-31T13:19:43.456Z,32.00
2018-07-31T13:22:13.097Z,33.60
2018-07-31T13:24:40.147Z,33.50
2018-07-31T13:27:08.568Z,32.40
2018-07-31T13:29:36.980Z,33.20
2018-07-31T13:32:05.357Z,35.40
2018-07-31T13:34:33.696Z,37.30
2018-07-31T13:37:02.141Z,36.90
2018-07-31T13:39:30.585Z,33.90
2018-07-31T13:41:58.980Z,32.50
2018-07-31T13:44:27.364Z,32.10
2018-07-31T13:46:55.731Z,33.70
2018-07-31T13:49:24.108Z,35.30
2018-07-31T13:51:52.457Z,36.50
2018-07-31T13:54:20.805Z,37.60
2018-07-31T13:56:49.180Z,38.70
2018-07-31T13:59:17.572Z,39.20
2018-07-31T14:01:45.902Z,38.70
2018-07-31T14:06:42.556Z,39.10
2018-07-31T14:09:11.519Z,39.30
2018-07-31T14:11:40.005Z,38.10
2018-07-31T14:14:08.443Z,39.10
2018-07-31T14:16:36.826Z,38.30
2018-07-31T14:19:08.044Z,38.10
2018-07-31T14:21:36.405Z,36.60
2018-07-31T14:24:04.768Z,35.30
2018-07-31T14:26:33.124Z,35.40
2018-07-31T14:29:01.642Z,36.30
2018-07-31T14:31:30.093Z,37.70
2018-07-31T14:33:58.453Z,39.90
2018-07-31T14:36:27.129Z,40.90
2018-07-31T14:38:55.515Z,40.80
2018-07-31T14:41:23.883Z,41.10
2018-07-31T14:43:52.382Z,41.10
2018-07-31T14:46:20.768Z,41.50
2018-07-31T14:48:49.057Z,41.00
2018-07-31T14:51:17.456Z,41.20
2018-07-31T14:53:45.806Z,40.80
2018-07-31T14:56:14.196Z,40.90
2018-07-31T14:58:42.594Z,40.40
2018-07-31T15:01:10.973Z,40.80
2018-07-31T15:03:39.317Z,41.50
2018-07-31T15:06:07.707Z,43.40
2018-07-31T15:08:39.956Z,44.10
2018-07-31T15:11:09.644Z,42.50
2018-07-31T15:16:06.033Z,41.10
2018-07-31T15:18:34.447Z,40.60
2018-07-31T15:21:02.894Z,41.40
2018-07-31T15:23:31.361Z,41.60
2018-07-31T15:25:59.651Z,40.70
2018-07-31T15:28:28.020Z,40.70
2018-07-31T15:30:56.700Z,40.30
2018-07-31T15:33:26.507Z,39.10
2018-07-31T15:35:55.563Z,38.30
2018-07-31T15:38:23.917Z,37.80
2018-07-31T15:40:52.323Z,37.20
2018-07-31T15:43:20.703Z,37.10
2018-07-31T15:45:49.025Z,38.20
2018-07-31T15:48:17.401Z,37.60
2018-07-31T15:50:45.812Z,36.90
2018-07-31T15:53:14.102Z,36.50
2018-07-31T15:55:42.412Z,36.40
2018-07-31T15:58:10.810Z,36.30
2018-07-31T16:00:39.134Z,36.00
2018-07-31T16:03:07.521Z,35.70
2018-07-31T16:05:35.927Z,35.40
2018-07-31T16:08:04.233Z,35.40
2018-07-31T16:10:32.560Z,35.20
2018-07-31T16:13:01.004Z,34.70
2018-07-31T16:15:29.384Z,34.40
2018-07-31T16:17:57.768Z,34.40
2018-07-31T16:20:26.167Z,34.50
2018-07-31T16:22:54.582Z,34.30
2018-07-31T16:25:22.878Z,33.80
2018-07-31T16:27:51.290Z,33.70
2018-07-31T16:30:19.643Z,33.90
2018-07-31T16:32:47.989Z,34.00
2018-07-31T16:35:16.365Z,34.00
2018-07-31T16:37:44.697Z,33.80
2018-07-31T16:40:13.081Z,33.40
2018-07-31T16:42:41.462Z,33.00
2018-07-31T16:45:09.809Z,32.90
2018-07-31T16:47:38.120Z,32.70
2018-07-31T16:50:06.544Z,32.60
2018-07-31T16:52:34.899Z,32.90
2018-07-31T16:55:03.250Z,32.90
2018-07-31T16:57:31.603Z,32.80
2018-07-31T16:59:59.935Z,32.70
2018-07-31T17:02:28.307Z,32.50
2018-07-31T17:04:56.681Z,32.30
2018-07-31T17:07:25.030Z,32.50
2018-07-31T17:09:53.384Z,32.70
2018-07-31T17:12:21.716Z,33.10
2018-07-31T17:14:50.031Z,33.20
2018-07-31T17:17:18.458Z,32.90
2018-07-31T17:19:46.831Z,32.50
2018-07-31T17:22:15.157Z,32.50
2018-07-31T17:24:43.509Z,32.70
2018-07-31T17:27:11.879Z,32.60
2018-07-31T17:29:40.240Z,32.60
2018-07-31T17:32:08.650Z,33.20
2018-07-31T17:34:37.017Z,33.60
2018-07-31T17:37:05.431Z,34.00
2018-07-31T17:39:33.761Z,33.60
2018-07-31T17:42:02.543Z,33.20
2018-07-31T17:44:35.658Z,32.70
2018-07-31T17:47:05.712Z,32.30
2018-07-31T17:49:36.969Z,32.10
2018-07-31T17:52:08.608Z,31.90
2018-07-31T17:54:39.096Z,31.80
2018-07-31T17:57:09.778Z,31.70
2018-07-31T17:59:40.228Z,32.30
2018-07-31T18:02:10.217Z,32.00
2018-07-31T18:04:41.368Z,32.40
2018-07-31T18:07:12.040Z,32.20
2018-07-31T18:09:42.786Z,32.00
2018-07-31T18:12:12.231Z,31.90
2018-07-31T18:14:42.445Z,31.60
2018-07-31T18:17:12.197Z,31.50
2018-07-31T18:19:44.567Z,31.30
2018-07-31T18:22:14.965Z,30.90
2018-07-31T18:24:45.861Z,30.80
2018-07-31T18:27:16.746Z,31.10
2018-07-31T18:29:49.268Z,30.80
2018-07-31T18:32:19.695Z,30.40
2018-07-31T18:34:52.999Z,30.00
2018-07-31T18:37:27.320Z,29.80
2018-07-31T18:39:57.841Z,29.60
2018-07-31T18:42:31.125Z,29.40
2018-07-31T18:45:01.012Z,29.20
2018-07-31T18:47:31.261Z,29.50
2018-07-31T18:50:01.911Z,29.10
2018-07-31T18:52:35.973Z,28.80
2018-07-31T18:55:10.088Z,28.60
2018-07-31T18:57:40.644Z,28.50
2018-07-31T19:00:11.872Z,28.40
2018-07-31T19:02:42.241Z,28.30
2018-07-31T19:05:12.783Z,28.20
2018-07-31T19:07:45.890Z,28.50
2018-07-31T19:10:16.656Z,28.20
2018-07-31T19:12:50.257Z,28.00
2018-07-31T19:17:54.663Z,27.60
2018-07-31T19:20:26.128Z,27.60
2018-07-31T19:22:57.501Z,27.80
2018-07-31T19:25:28.637Z,27.60
2018-07-31T19:27:59.234Z,27.40
2018-07-31T19:30:29.374Z,27.30
2018-07-31T19:33:00.401Z,27.20
2018-07-31T19:35:31.514Z,27.10
2018-07-31T19:38:03.796Z,27.00
2018-07-31T19:40:34.710Z,27.30
2018-07-31T19:43:05.380Z,27.30
2018-07-31T19:45:35.879Z,27.00
2018-07-31T19:48:08.624Z,26.80
2018-07-31T19:50:38.636Z,26.70
2018-07-31T19:53:09.131Z,26.50
2018-07-31T19:55:39.410Z,26.40
2018-07-31T19:58:10.168Z,26.40
2018-07-31T20:00:44.324Z,26.60
2018-07-31T20:03:14.497Z,26.50
2018-07-31T20:05:46.181Z,26.30
2018-07-31T20:08:16.510Z,26.50
2018-07-31T20:10:47.989Z,26.30
2018-07-31T20:13:18.552Z,26.10
2018-07-31T20:15:49.999Z,26.10
2018-07-31T20:20:54.123Z,25.80
2018-07-31T20:23:25.756Z,25.80
2018-07-31T20:25:55.621Z,25.60
2018-07-31T20:28:25.757Z,25.60
2018-07-31T20:30:55.799Z,25.60
2018-07-31T20:33:26.218Z,25.50
2018-07-31T20:35:57.054Z,25.80
2018-07-31T20:38:27.385Z,25.70
2018-07-31T20:40:58.793Z,25.50
2018-07-31T20:43:30.261Z,25.20
2018-07-31T20:46:01.520Z,25.10
2018-07-31T20:48:33.164Z,25.40
2018-07-31T20:51:04.435Z,25.50
2018-07-31T20:53:36.150Z,25.20
2018-07-31T20:56:08.102Z,25.40
2018-07-31T21:01:09.976Z,25.10
2018-07-31T21:03:41.497Z,25.00
2018-07-31T21:06:13.308Z,24.90
2018-07-31T21:08:41.353Z,24.90
2018-07-31T21:11:09.749Z,24.80
2018-07-31T21:13:38.214Z,24.70
2018-07-31T21:16:06.797Z,24.60
2018-07-31T21:18:35.251Z,24.50
2018-07-31T21:21:03.650Z,24.40
2018-07-31T21:23:32.046Z,24.30
2018-07-31T21:26:00.398Z,24.30
2018-07-31T21:28:28.787Z,24.20
2018-07-31T21:30:57.193Z,24.20
2018-07-31T21:33:25.759Z,24.20
2018-07-31T21:35:54.492Z,24.10
2018-07-31T21:38:40.500Z,24.10
2018-07-31T21:41:18.577Z,24.10
2018-07-31T21:46:34.981Z,24.00
2018-07-31T21:49:03.346Z,23.90
2018-07-31T21:54:00.087Z,23.70
2018-07-31T21:56:28.511Z,23.70
2018-07-31T21:58:56.922Z,23.90
2018-07-31T22:01:25.392Z,23.70
2018-07-31T22:03:53.831Z,23.70
2018-07-31T22:06:22.447Z,23.90
2018-07-31T22:08:50.737Z,23.70
2018-07-31T22:11:19.076Z,23.60
2018-07-31T22:13:47.425Z,23.50
2018-07-31T22:16:15.722Z,23.40
2018-07-31T22:21:12.226Z,23.20
2018-07-31T22:23:40.549Z,23.10
2018-07-31T22:28:37.080Z,22.90
2018-07-31T22:31:05.503Z,22.80
2018-07-31T22:33:33.896Z,22.70
2018-07-31T22:36:02.273Z,22.60
2018-07-31T22:38:30.599Z,22.70
2018-07-31T22:40:59.003Z,22.70
2018-07-31T22:43:27.402Z,22.60
2018-07-31T22:45:55.640Z,22.50
2018-07-31T22:48:24.012Z,22.50
2018-07-31T22:50:52.417Z,22.40
2018-07-31T22:53:20.737Z,22.30
2018-07-31T22:55:49.114Z,22.70
2018-07-31T22:58:17.413Z,22.60
2018-07-31T23:00:45.883Z,22.50
2018-07-31T23:03:14.273Z,22.30
2018-07-31T23:05:42.638Z,22.30
2018-07-31T23:08:10.951Z,22.40
2018-07-31T23:10:39.318Z,22.60
2018-07-31T23:13:07.708Z,22.60
2018-07-31T23:15:36.054Z,22.30
2018-07-31T23:18:11.732Z,22.20
2018-07-31T23:20:40.075Z,22.10
2018-07-31T23:23:08.406Z,22.00
2018-07-31T23:25:36.742Z,21.90
2018-07-31T23:28:05.076Z,21.80
2018-07-31T23:30:33.403Z,21.80
2018-07-31T23:33:01.761Z,21.80
2018-07-31T23:35:30.109Z,21.80
2018-07-31T23:37:58.416Z,21.80
2018-07-31T23:40:26.788Z,21.70
2018-07-31T23:42:55.074Z,21.70
2018-07-31T23:45:23.403Z,21.70
2018-07-31T23:47:51.786Z,21.60
2018-07-31T23:50:20.109Z,21.50
2018-07-31T23:52:48.447Z,21.50
2018-07-31T23:57:44.891Z,21.30
